sensor_id;sensor_type;location;lat;lon;timestamp;P1;durP1;ratioP1;P2;durP2;ratioP2
54263;SDS011;40178;53.042;6.406;2022-12-07T00:01:13;7.07;;;1.35;;
54263;SDS011;40178;53.042;6.406;2022-12-07T00:03:41;5.82;;;1.63;;
54263;SDS011;40178;53.042;6.406;2022-12-07T00:06:08;7.10;;;2.00;;
54263;SDS011;40178;53.042;6.406;2022-12-07T00:08:35;5.72;;;1.40;;
54263;SDS011;40178;53.042;6.406;2022-12-07T00:11:05;11.68;;;1.63;;
54263;SDS011;40178;53.042;6.406;2022-12-07T00:13:33;5.63;;;1.20;;
54263;SDS011;40178;53.042;6.406;2022-12-07T00:16:03;8.70;;;1.42;;
54263;SDS011;40178;53.042;6.406;2022-12-07T00:18:31;7.63;;;1.38;;
54263;SDS011;40178;53.042;6.406;2022-12-07T00:21:01;4.68;;;1.38;;
54263;SDS011;40178;53.042;6.406;2022-12-07T00:23:27;7.95;;;1.48;;
54263;SDS011;40178;53.042;6.406;2022-12-07T00:25:53;6.00;;;1.35;;
54263;SDS011;40178;53.042;6.406;2022-12-07T00:28:18;5.40;;;1.10;;
54263;SDS011;40178;53.042;6.406;2022-12-07T00:30:44;5.97;;;1.13;;
54263;SDS011;40178;53.042;6.406;2022-12-07T00:33:10;8.30;;;1.52;;
54263;SDS011;40178;53.042;6.406;2022-12-07T00:35:35;7.35;;;1.40;;
54263;SDS011;40178;53.042;6.406;2022-12-07T00:38:01;5.03;;;0.90;;
54263;SDS011;40178;53.042;6.406;2022-12-07T00:40:26;12.23;;;1.05;;
54263;SDS011;40178;53.042;6.406;2022-12-07T00:42:52;6.40;;;1.30;;
54263;SDS011;40178;53.042;6.406;2022-12-07T00:45:17;6.72;;;1.20;;
54263;SDS011;40178;53.042;6.406;2022-12-07T00:47:43;10.73;;;1.50;;
54263;SDS011;40178;53.042;6.406;2022-12-07T00:50:08;6.28;;;1.20;;
54263;SDS011;40178;53.042;6.406;2022-12-07T00:52:34;7.30;;;0.95;;
54263;SDS011;40178;53.042;6.406;2022-12-07T00:54:59;8.82;;;1.13;;
54263;SDS011;40178;53.042;6.406;2022-12-07T00:57:25;6.15;;;1.25;;
54263;SDS011;40178;53.042;6.406;2022-12-07T00:59:50;8.13;;;1.20;;
54263;SDS011;40178;53.042;6.406;2022-12-07T01:02:20;6.85;;;1.02;;
54263;SDS011;40178;53.042;6.406;2022-12-07T01:04:46;6.68;;;0.88;;
54263;SDS011;40178;53.042;6.406;2022-12-07T01:07:11;8.18;;;1.35;;
54263;SDS011;40178;53.042;6.406;2022-12-07T01:09:37;7.93;;;1.27;;
54263;SDS011;40178;53.042;6.406;2022-12-07T01:12:03;7.63;;;1.40;;
54263;SDS011;40178;53.042;6.406;2022-12-07T01:14:28;6.07;;;1.00;;
54263;SDS011;40178;53.042;6.406;2022-12-07T01:16:54;6.60;;;1.00;;
54263;SDS011;40178;53.042;6.406;2022-12-07T01:19:20;9.73;;;1.25;;
54263;SDS011;40178;53.042;6.406;2022-12-07T01:21:45;8.20;;;1.20;;
54263;SDS011;40178;53.042;6.406;2022-12-07T01:24:11;8.48;;;1.55;;
54263;SDS011;40178;53.042;6.406;2022-12-07T01:26:36;9.27;;;1.17;;
54263;SDS011;40178;53.042;6.406;2022-12-07T01:29:02;7.13;;;0.95;;
54263;SDS011;40178;53.042;6.406;2022-12-07T01:31:28;5.22;;;1.17;;
54263;SDS011;40178;53.042;6.406;2022-12-07T01:33:55;8.30;;;1.25;;
54263;SDS011;40178;53.042;6.406;2022-12-07T01:36:29;6.90;;;1.15;;
54263;SDS011;40178;53.042;6.406;2022-12-07T01:38:57;5.68;;;1.10;;
54263;SDS011;40178;53.042;6.406;2022-12-07T01:41:26;4.95;;;0.95;;
54263;SDS011;40178;53.042;6.406;2022-12-07T01:44:14;8.35;;;1.10;;
54263;SDS011;40178;53.042;6.406;2022-12-07T01:52:23;8.23;;;0.80;;
54263;SDS011;40178;53.042;6.406;2022-12-07T01:54:57;7.70;;;1.20;;
54263;SDS011;40178;53.042;6.406;2022-12-07T01:57:26;5.57;;;0.70;;
54263;SDS011;40178;53.042;6.406;2022-12-07T01:59:53;6.85;;;0.88;;
54263;SDS011;40178;53.042;6.406;2022-12-07T02:02:26;5.45;;;0.75;;
54263;SDS011;40178;53.042;6.406;2022-12-07T02:04:57;6.85;;;0.80;;
54263;SDS011;40178;53.042;6.406;2022-12-07T02:07:25;11.05;;;1.13;;
54263;SDS011;40178;53.042;6.406;2022-12-07T02:09:52;4.75;;;0.70;;
54263;SDS011;40178;53.042;6.406;2022-12-07T02:12:18;5.88;;;0.77;;
54263;SDS011;40178;53.042;6.406;2022-12-07T02:14:45;4.80;;;0.52;;
54263;SDS011;40178;53.042;6.406;2022-12-07T02:17:13;7.63;;;1.00;;
54263;SDS011;40178;53.042;6.406;2022-12-07T02:22:33;3.83;;;0.50;;
54263;SDS011;40178;53.042;6.406;2022-12-07T02:28:27;10.00;;;1.30;;
54263;SDS011;40178;53.042;6.406;2022-12-07T02:31:04;3.72;;;0.73;;
54263;SDS011;40178;53.042;6.406;2022-12-07T02:33:36;6.32;;;0.70;;
54263;SDS011;40178;53.042;6.406;2022-12-07T02:36:10;5.65;;;0.65;;
54263;SDS011;40178;53.042;6.406;2022-12-07T02:38:44;7.57;;;1.20;;
54263;SDS011;40178;53.042;6.406;2022-12-07T02:44:02;6.95;;;1.10;;
54263;SDS011;40178;53.042;6.406;2022-12-07T02:46:33;5.60;;;0.93;;
54263;SDS011;40178;53.042;6.406;2022-12-07T02:49:07;2.97;;;0.50;;
54263;SDS011;40178;53.042;6.406;2022-12-07T02:51:33;9.10;;;0.98;;
54263;SDS011;40178;53.042;6.406;2022-12-07T02:54:07;7.68;;;0.77;;
54263;SDS011;40178;53.042;6.406;2022-12-07T02:56:45;3.17;;;0.70;;
54263;SDS011;40178;53.042;6.406;2022-12-07T02:59:32;8.98;;;0.73;;
54263;SDS011;40178;53.042;6.406;2022-12-07T03:02:25;4.85;;;0.52;;
54263;SDS011;40178;53.042;6.406;2022-12-07T03:10:42;6.03;;;0.73;;
54263;SDS011;40178;53.042;6.406;2022-12-07T03:13:30;7.55;;;1.10;;
54263;SDS011;40178;53.042;6.406;2022-12-07T03:16:18;6.50;;;0.60;;
54263;SDS011;40178;53.042;6.406;2022-12-07T03:19:06;6.50;;;0.85;;
54263;SDS011;40178;53.042;6.406;2022-12-07T03:21:39;8.02;;;1.23;;
54263;SDS011;40178;53.042;6.406;2022-12-07T03:24:15;5.47;;;0.55;;
54263;SDS011;40178;53.042;6.406;2022-12-07T03:26:45;10.65;;;1.10;;
54263;SDS011;40178;53.042;6.406;2022-12-07T03:29:19;5.53;;;0.73;;
54263;SDS011;40178;53.042;6.406;2022-12-07T03:31:51;9.18;;;0.85;;
54263;SDS011;40178;53.042;6.406;2022-12-07T03:34:34;7.75;;;1.02;;
54263;SDS011;40178;53.042;6.406;2022-12-07T03:37:06;6.05;;;0.77;;
54263;SDS011;40178;53.042;6.406;2022-12-07T03:42:44;7.32;;;0.77;;
54263;SDS011;40178;53.042;6.406;2022-12-07T03:45:11;4.45;;;0.60;;
54263;SDS011;40178;53.042;6.406;2022-12-07T03:47:42;5.68;;;0.70;;
54263;SDS011;40178;53.042;6.406;2022-12-07T03:50:38;9.23;;;0.85;;
54263;SDS011;40178;53.042;6.406;2022-12-07T03:53:12;6.78;;;0.80;;
54263;SDS011;40178;53.042;6.406;2022-12-07T03:55:44;7.78;;;0.80;;
54263;SDS011;40178;53.042;6.406;2022-12-07T03:58:17;3.38;;;0.65;;
54263;SDS011;40178;53.042;6.406;2022-12-07T04:00:46;5.25;;;0.60;;
54263;SDS011;40178;53.042;6.406;2022-12-07T04:03:13;8.75;;;0.75;;
54263;SDS011;40178;53.042;6.406;2022-12-07T04:05:39;4.78;;;0.90;;
54263;SDS011;40178;53.042;6.406;2022-12-07T04:08:05;7.68;;;0.85;;
54263;SDS011;40178;53.042;6.406;2022-12-07T04:10:31;7.97;;;1.13;;
54263;SDS011;40178;53.042;6.406;2022-12-07T04:12:57;5.45;;;0.77;;
54263;SDS011;40178;53.042;6.406;2022-12-07T04:15:22;9.63;;;0.88;;
54263;SDS011;40178;53.042;6.406;2022-12-07T04:17:48;10.98;;;1.75;;
54263;SDS011;40178;53.042;6.406;2022-12-07T04:20:14;12.00;;;1.05;;
54263;SDS011;40178;53.042;6.406;2022-12-07T04:22:40;7.10;;;1.20;;
54263;SDS011;40178;53.042;6.406;2022-12-07T04:25:05;5.40;;;0.50;;
54263;SDS011;40178;53.042;6.406;2022-12-07T04:27:31;5.32;;;0.77;;
54263;SDS011;40178;53.042;6.406;2022-12-07T04:29:57;6.50;;;0.98;;
54263;SDS011;40178;53.042;6.406;2022-12-07T04:32:23;16.05;;;2.00;;
54263;SDS011;40178;53.042;6.406;2022-12-07T04:34:48;9.10;;;1.15;;
54263;SDS011;40178;53.042;6.406;2022-12-07T04:37:14;5.40;;;0.70;;
54263;SDS011;40178;53.042;6.406;2022-12-07T04:39:40;7.90;;;0.60;;
54263;SDS011;40178;53.042;6.406;2022-12-07T04:42:06;4.05;;;0.75;;
54263;SDS011;40178;53.042;6.406;2022-12-07T04:44:31;16.35;;;1.35;;
54263;SDS011;40178;53.042;6.406;2022-12-07T04:46:57;7.53;;;0.80;;
54263;SDS011;40178;53.042;6.406;2022-12-07T04:49:23;6.30;;;0.88;;
54263;SDS011;40178;53.042;6.406;2022-12-07T04:51:49;5.35;;;1.00;;
54263;SDS011;40178;53.042;6.406;2022-12-07T04:54:16;10.07;;;1.08;;
54263;SDS011;40178;53.042;6.406;2022-12-07T04:56:42;6.07;;;1.42;;
54263;SDS011;40178;53.042;6.406;2022-12-07T04:59:08;5.05;;;0.73;;
54263;SDS011;40178;53.042;6.406;2022-12-07T05:01:38;9.00;;;0.77;;
54263;SDS011;40178;53.042;6.406;2022-12-07T05:04:04;9.82;;;1.13;;
54263;SDS011;40178;53.042;6.406;2022-12-07T05:06:30;7.60;;;0.82;;
54263;SDS011;40178;53.042;6.406;2022-12-07T05:08:55;5.00;;;0.50;;
54263;SDS011;40178;53.042;6.406;2022-12-07T05:11:21;11.23;;;1.05;;
54263;SDS011;40178;53.042;6.406;2022-12-07T05:14:15;5.88;;;0.70;;
54263;SDS011;40178;53.042;6.406;2022-12-07T05:16:43;5.07;;;1.02;;
54263;SDS011;40178;53.042;6.406;2022-12-07T05:19:10;6.90;;;0.88;;
54263;SDS011;40178;53.042;6.406;2022-12-07T05:21:36;9.50;;;0.65;;
54263;SDS011;40178;53.042;6.406;2022-12-07T05:24:03;9.07;;;1.00;;
54263;SDS011;40178;53.042;6.406;2022-12-07T05:26:29;6.85;;;0.82;;
54263;SDS011;40178;53.042;6.406;2022-12-07T05:28:55;10.02;;;1.08;;
54263;SDS011;40178;53.042;6.406;2022-12-07T05:31:22;8.50;;;0.90;;
54263;SDS011;40178;53.042;6.406;2022-12-07T05:33:48;6.43;;;0.93;;
54263;SDS011;40178;53.042;6.406;2022-12-07T05:36:14;5.95;;;0.75;;
54263;SDS011;40178;53.042;6.406;2022-12-07T05:38:40;7.25;;;0.98;;
54263;SDS011;40178;53.042;6.406;2022-12-07T05:41:06;5.43;;;0.90;;
54263;SDS011;40178;53.042;6.406;2022-12-07T05:43:52;6.65;;;1.17;;
54263;SDS011;40178;53.042;6.406;2022-12-07T05:46:18;8.00;;;0.60;;
54263;SDS011;40178;53.042;6.406;2022-12-07T05:48:44;4.85;;;0.93;;
54263;SDS011;40178;53.042;6.406;2022-12-07T05:51:09;7.55;;;0.77;;
54263;SDS011;40178;53.042;6.406;2022-12-07T05:53:35;5.03;;;1.00;;
54263;SDS011;40178;53.042;6.406;2022-12-07T05:56:00;7.43;;;1.05;;
54263;SDS011;40178;53.042;6.406;2022-12-07T05:58:26;5.63;;;0.88;;
54263;SDS011;40178;53.042;6.406;2022-12-07T06:01:10;10.13;;;1.02;;
54263;SDS011;40178;53.042;6.406;2022-12-07T06:03:35;6.88;;;1.02;;
54263;SDS011;40178;53.042;6.406;2022-12-07T06:06:01;6.22;;;0.90;;
54263;SDS011;40178;53.042;6.406;2022-12-07T06:08:26;7.03;;;1.08;;
54263;SDS011;40178;53.042;6.406;2022-12-07T06:10:52;8.50;;;1.17;;
54263;SDS011;40178;53.042;6.406;2022-12-07T06:13:37;10.02;;;1.27;;
54263;SDS011;40178;53.042;6.406;2022-12-07T06:16:03;6.45;;;0.75;;
54263;SDS011;40178;53.042;6.406;2022-12-07T06:18:29;6.60;;;1.35;;
54263;SDS011;40178;53.042;6.406;2022-12-07T06:20:54;6.32;;;0.90;;
54263;SDS011;40178;53.042;6.406;2022-12-07T06:23:20;10.32;;;1.63;;
54263;SDS011;40178;53.042;6.406;2022-12-07T06:25:45;10.20;;;1.50;;
54263;SDS011;40178;53.042;6.406;2022-12-07T06:28:11;6.32;;;1.33;;
54263;SDS011;40178;53.042;6.406;2022-12-07T06:30:37;4.60;;;0.70;;
54263;SDS011;40178;53.042;6.406;2022-12-07T06:33:02;6.57;;;0.98;;
54263;SDS011;40178;53.042;6.406;2022-12-07T06:35:28;8.35;;;1.58;;
54263;SDS011;40178;53.042;6.406;2022-12-07T06:37:53;6.38;;;0.88;;
54263;SDS011;40178;53.042;6.406;2022-12-07T06:40:19;6.25;;;1.25;;
54263;SDS011;40178;53.042;6.406;2022-12-07T06:42:44;3.60;;;0.70;;
54263;SDS011;40178;53.042;6.406;2022-12-07T06:45:10;8.40;;;1.02;;
54263;SDS011;40178;53.042;6.406;2022-12-07T06:47:36;5.38;;;0.68;;
54263;SDS011;40178;53.042;6.406;2022-12-07T06:50:01;4.85;;;0.70;;
54263;SDS011;40178;53.042;6.406;2022-12-07T06:52:27;10.32;;;1.20;;
54263;SDS011;40178;53.042;6.406;2022-12-07T06:54:53;3.55;;;0.73;;
54263;SDS011;40178;53.042;6.406;2022-12-07T06:57:19;4.93;;;0.88;;
54263;SDS011;40178;53.042;6.406;2022-12-07T06:59:45;6.05;;;0.82;;
54263;SDS011;40178;53.042;6.406;2022-12-07T07:02:10;7.13;;;0.77;;
54263;SDS011;40178;53.042;6.406;2022-12-07T07:04:36;7.03;;;1.25;;
54263;SDS011;40178;53.042;6.406;2022-12-07T07:07:02;4.50;;;0.82;;
54263;SDS011;40178;53.042;6.406;2022-12-07T07:09:27;7.20;;;0.80;;
54263;SDS011;40178;53.042;6.406;2022-12-07T07:11:53;11.13;;;1.05;;
54263;SDS011;40178;53.042;6.406;2022-12-07T07:14:19;9.10;;;0.70;;
54263;SDS011;40178;53.042;6.406;2022-12-07T07:16:46;7.53;;;1.02;;
54263;SDS011;40178;53.042;6.406;2022-12-07T07:19:11;9.05;;;1.10;;
54263;SDS011;40178;53.042;6.406;2022-12-07T07:21:37;8.07;;;1.00;;
54263;SDS011;40178;53.042;6.406;2022-12-07T07:24:02;6.97;;;1.00;;
54263;SDS011;40178;53.042;6.406;2022-12-07T07:26:28;8.63;;;1.30;;
54263;SDS011;40178;53.042;6.406;2022-12-07T07:28:55;6.35;;;0.88;;
54263;SDS011;40178;53.042;6.406;2022-12-07T07:31:20;9.85;;;1.05;;
54263;SDS011;40178;53.042;6.406;2022-12-07T07:33:46;9.30;;;1.10;;
54263;SDS011;40178;53.042;6.406;2022-12-07T07:36:12;10.75;;;1.10;;
54263;SDS011;40178;53.042;6.406;2022-12-07T07:38:37;7.75;;;1.20;;
54263;SDS011;40178;53.042;6.406;2022-12-07T07:41:03;11.52;;;1.40;;
54263;SDS011;40178;53.042;6.406;2022-12-07T07:43:29;7.65;;;1.48;;
54263;SDS011;40178;53.042;6.406;2022-12-07T07:45:54;7.85;;;1.52;;
54263;SDS011;40178;53.042;6.406;2022-12-07T07:48:20;7.80;;;1.40;;
54263;SDS011;40178;53.042;6.406;2022-12-07T07:50:47;7.10;;;1.05;;
54263;SDS011;40178;53.042;6.406;2022-12-07T07:53:13;13.35;;;2.08;;
54263;SDS011;40178;53.042;6.406;2022-12-07T07:55:39;8.93;;;1.40;;
54263;SDS011;40178;53.042;6.406;2022-12-07T07:58:04;8.00;;;1.48;;
54263;SDS011;40178;53.042;6.406;2022-12-07T08:00:30;8.00;;;1.00;;
54263;SDS011;40178;53.042;6.406;2022-12-07T08:02:55;10.38;;;1.65;;
54263;SDS011;40178;53.042;6.406;2022-12-07T08:05:21;8.00;;;1.23;;
54263;SDS011;40178;53.042;6.406;2022-12-07T08:07:46;6.78;;;1.73;;
54263;SDS011;40178;53.042;6.406;2022-12-07T08:10:12;12.35;;;1.88;;
54263;SDS011;40178;53.042;6.406;2022-12-07T08:12:39;9.00;;;1.95;;
54263;SDS011;40178;53.042;6.406;2022-12-07T08:15:29;6.10;;;1.73;;
54263;SDS011;40178;53.042;6.406;2022-12-07T08:17:55;7.47;;;1.67;;
54263;SDS011;40178;53.042;6.406;2022-12-07T08:20:21;5.75;;;1.33;;
54263;SDS011;40178;53.042;6.406;2022-12-07T08:22:47;10.40;;;1.58;;
54263;SDS011;40178;53.042;6.406;2022-12-07T08:25:12;10.20;;;1.63;;
54263;SDS011;40178;53.042;6.406;2022-12-07T08:27:38;10.77;;;1.58;;
54263;SDS011;40178;53.042;6.406;2022-12-07T08:30:04;7.55;;;1.60;;
54263;SDS011;40178;53.042;6.406;2022-12-07T08:32:30;7.28;;;1.75;;
54263;SDS011;40178;53.042;6.406;2022-12-07T08:34:55;9.30;;;1.40;;
54263;SDS011;40178;53.042;6.406;2022-12-07T08:37:21;11.88;;;1.33;;
54263;SDS011;40178;53.042;6.406;2022-12-07T08:39:47;7.25;;;1.40;;
54263;SDS011;40178;53.042;6.406;2022-12-07T08:42:12;9.20;;;1.73;;
54263;SDS011;40178;53.042;6.406;2022-12-07T08:44:38;9.52;;;1.95;;
54263;SDS011;40178;53.042;6.406;2022-12-07T08:47:05;7.18;;;1.70;;
54263;SDS011;40178;53.042;6.406;2022-12-07T08:49:34;13.27;;;2.53;;
54263;SDS011;40178;53.042;6.406;2022-12-07T08:52:03;8.88;;;1.95;;
54263;SDS011;40178;53.042;6.406;2022-12-07T08:54:30;7.75;;;1.80;;
54263;SDS011;40178;53.042;6.406;2022-12-07T08:56:58;9.07;;;2.20;;
54263;SDS011;40178;53.042;6.406;2022-12-07T08:59:24;7.97;;;2.22;;
54263;SDS011;40178;53.042;6.406;2022-12-07T09:01:50;10.07;;;1.85;;
54263;SDS011;40178;53.042;6.406;2022-12-07T09:04:16;7.60;;;1.67;;
54263;SDS011;40178;53.042;6.406;2022-12-07T09:06:41;17.83;;;2.47;;
54263;SDS011;40178;53.042;6.406;2022-12-07T09:09:07;8.82;;;2.10;;
54263;SDS011;40178;53.042;6.406;2022-12-07T09:11:34;12.15;;;2.22;;
54263;SDS011;40178;53.042;6.406;2022-12-07T09:13:59;10.90;;;1.92;;
54263;SDS011;40178;53.042;6.406;2022-12-07T09:16:25;7.72;;;1.77;;
54263;SDS011;40178;53.042;6.406;2022-12-07T09:18:50;12.43;;;2.40;;
54263;SDS011;40178;53.042;6.406;2022-12-07T09:21:16;10.98;;;2.15;;
54263;SDS011;40178;53.042;6.406;2022-12-07T09:23:42;11.45;;;2.47;;
54263;SDS011;40178;53.042;6.406;2022-12-07T09:26:08;12.70;;;2.47;;
54263;SDS011;40178;53.042;6.406;2022-12-07T09:28:33;9.68;;;2.17;;
54263;SDS011;40178;53.042;6.406;2022-12-07T09:30:59;9.90;;;2.35;;
54263;SDS011;40178;53.042;6.406;2022-12-07T09:33:24;13.10;;;2.90;;
54263;SDS011;40178;53.042;6.406;2022-12-07T09:35:51;11.23;;;2.00;;
54263;SDS011;40178;53.042;6.406;2022-12-07T09:38:17;9.25;;;1.40;;
54263;SDS011;40178;53.042;6.406;2022-12-07T09:40:44;11.65;;;2.42;;
54263;SDS011;40178;53.042;6.406;2022-12-07T09:43:13;5.60;;;1.77;;
54263;SDS011;40178;53.042;6.406;2022-12-07T09:45:44;7.35;;;1.70;;
54263;SDS011;40178;53.042;6.406;2022-12-07T09:48:17;8.50;;;1.90;;
54263;SDS011;40178;53.042;6.406;2022-12-07T09:50:45;6.00;;;1.52;;
54263;SDS011;40178;53.042;6.406;2022-12-07T09:53:20;8.90;;;1.45;;
54263;SDS011;40178;53.042;6.406;2022-12-07T09:55:51;7.85;;;1.50;;
54263;SDS011;40178;53.042;6.406;2022-12-07T09:58:20;10.43;;;1.70;;
54263;SDS011;40178;53.042;6.406;2022-12-07T10:01:38;6.68;;;1.63;;
54263;SDS011;40178;53.042;6.406;2022-12-07T10:03:39;6.43;;;1.48;;
54263;SDS011;40178;53.042;6.406;2022-12-07T10:06:09;6.78;;;1.50;;
54263;SDS011;40178;53.042;6.406;2022-12-07T10:08:37;15.13;;;2.47;;
54263;SDS011;40178;53.042;6.406;2022-12-07T10:11:03;9.95;;;2.22;;
54263;SDS011;40178;53.042;6.406;2022-12-07T10:13:39;6.68;;;1.85;;
54263;SDS011;40178;53.042;6.406;2022-12-07T10:16:32;5.80;;;1.83;;
54263;SDS011;40178;53.042;6.406;2022-12-07T10:19:25;11.88;;;1.80;;
54263;SDS011;40178;53.042;6.406;2022-12-07T10:22:00;9.23;;;1.67;;
54263;SDS011;40178;53.042;6.406;2022-12-07T10:24:37;8.30;;;1.52;;
54263;SDS011;40178;53.042;6.406;2022-12-07T10:27:30;6.75;;;0.80;;
54263;SDS011;40178;53.042;6.406;2022-12-07T10:29:57;8.52;;;1.38;;
54263;SDS011;40178;53.042;6.406;2022-12-07T10:32:34;8.60;;;1.00;;
54263;SDS011;40178;53.042;6.406;2022-12-07T10:37:57;7.45;;;1.50;;
54263;SDS011;40178;53.042;6.406;2022-12-07T10:43:02;5.38;;;0.98;;
54263;SDS011;40178;53.042;6.406;2022-12-07T10:45:30;7.15;;;0.88;;
54263;SDS011;40178;53.042;6.406;2022-12-07T10:48:17;6.03;;;1.00;;
54263;SDS011;40178;53.042;6.406;2022-12-07T10:51:11;5.13;;;0.70;;
54263;SDS011;40178;53.042;6.406;2022-12-07T10:54:12;6.78;;;1.38;;
54263;SDS011;40178;53.042;6.406;2022-12-07T11:02:29;9.27;;;0.90;;
54263;SDS011;40178;53.042;6.406;2022-12-07T11:05:17;4.55;;;0.65;;
54263;SDS011;40178;53.042;6.406;2022-12-07T11:10:54;5.05;;;0.82;;
54263;SDS011;40178;53.042;6.406;2022-12-07T11:13:44;5.63;;;0.75;;
54263;SDS011;40178;53.042;6.406;2022-12-07T11:19:06;4.50;;;0.80;;
54263;SDS011;40178;53.042;6.406;2022-12-07T11:21:48;4.40;;;0.63;;
54263;SDS011;40178;53.042;6.406;2022-12-07T11:24:32;4.90;;;0.82;;
54263;SDS011;40178;53.042;6.406;2022-12-07T11:32:45;5.15;;;0.95;;
54263;SDS011;40178;53.042;6.406;2022-12-07T11:35:43;9.57;;;1.05;;
54263;SDS011;40178;53.042;6.406;2022-12-07T11:38:45;8.70;;;1.80;;
54263;SDS011;40178;53.042;6.406;2022-12-07T11:41:28;9.52;;;0.80;;
54263;SDS011;40178;53.042;6.406;2022-12-07T11:44:08;7.40;;;1.02;;
54263;SDS011;40178;53.042;6.406;2022-12-07T11:46:51;11.75;;;1.33;;
54263;SDS011;40178;53.042;6.406;2022-12-07T11:52:06;8.57;;;1.75;;
54263;SDS011;40178;53.042;6.406;2022-12-07T11:54:57;10.85;;;1.30;;
54263;SDS011;40178;53.042;6.406;2022-12-07T11:57:46;7.63;;;2.00;;
54263;SDS011;40178;53.042;6.406;2022-12-07T12:00:16;7.22;;;0.68;;
54263;SDS011;40178;53.042;6.406;2022-12-07T12:02:49;3.47;;;0.90;;
54263;SDS011;40178;53.042;6.406;2022-12-07T12:05:21;5.85;;;0.68;;
54263;SDS011;40178;53.042;6.406;2022-12-07T12:07:48;6.28;;;0.90;;
54263;SDS011;40178;53.042;6.406;2022-12-07T12:13:43;5.20;;;0.95;;
54263;SDS011;40178;53.042;6.406;2022-12-07T12:22:32;4.28;;;0.60;;
54263;SDS011;40178;53.042;6.406;2022-12-07T12:24:55;6.78;;;1.17;;
54263;SDS011;40178;53.042;6.406;2022-12-07T12:27:26;3.30;;;0.60;;
54263;SDS011;40178;53.042;6.406;2022-12-07T12:29:56;5.38;;;0.52;;
54263;SDS011;40178;53.042;6.406;2022-12-07T12:35:20;4.18;;;0.40;;
54263;SDS011;40178;53.042;6.406;2022-12-07T12:46:57;3.55;;;0.50;;
54263;SDS011;40178;53.042;6.406;2022-12-07T12:51:57;2.72;;;0.40;;
54263;SDS011;40178;53.042;6.406;2022-12-07T12:57:46;2.30;;;0.52;;
54263;SDS011;40178;53.042;6.406;2022-12-07T13:00:30;3.30;;;0.10;;
54263;SDS011;40178;53.042;6.406;2022-12-07T13:02:56;3.25;;;0.20;;
54263;SDS011;40178;53.042;6.406;2022-12-07T13:05:30;2.80;;;0.40;;
54263;SDS011;40178;53.042;6.406;2022-12-07T13:07:57;1.75;;;0.10;;
54263;SDS011;40178;53.042;6.406;2022-12-07T13:20:54;3.33;;;0.50;;
54263;SDS011;40178;53.042;6.406;2022-12-07T13:26:18;1.45;;;0.28;;
54263;SDS011;40178;53.042;6.406;2022-12-07T13:28:46;3.38;;;0.38;;
54263;SDS011;40178;53.042;6.406;2022-12-07T13:31:19;4.38;;;0.50;;
54263;SDS011;40178;53.042;6.406;2022-12-07T13:33:48;3.58;;;0.30;;
54263;SDS011;40178;53.042;6.406;2022-12-07T13:36:59;6.00;;;1.45;;
54263;SDS011;40178;53.042;6.406;2022-12-07T13:41:44;2.47;;;0.30;;
54263;SDS011;40178;53.042;6.406;2022-12-07T13:44:15;5.00;;;0.50;;
54263;SDS011;40178;53.042;6.406;2022-12-07T13:46:44;2.00;;;0.22;;
54263;SDS011;40178;53.042;6.406;2022-12-07T13:49:24;2.78;;;0.30;;
54263;SDS011;40178;53.042;6.406;2022-12-07T13:51:56;3.20;;;0.60;;
54263;SDS011;40178;53.042;6.406;2022-12-07T13:57:40;3.33;;;0.63;;
54263;SDS011;40178;53.042;6.406;2022-12-07T14:00:16;3.22;;;0.40;;
54263;SDS011;40178;53.042;6.406;2022-12-07T14:03:00;5.10;;;1.10;;
54263;SDS011;40178;53.042;6.406;2022-12-07T14:05:46;3.38;;;1.00;;
54263;SDS011;40178;53.042;6.406;2022-12-07T14:08:29;3.47;;;0.73;;
54263;SDS011;40178;53.042;6.406;2022-12-07T14:10:55;3.58;;;0.85;;
54263;SDS011;40178;53.042;6.406;2022-12-07T14:13:33;4.20;;;0.43;;
54263;SDS011;40178;53.042;6.406;2022-12-07T14:16:01;4.97;;;0.65;;
54263;SDS011;40178;53.042;6.406;2022-12-07T14:18:36;4.10;;;0.60;;
54263;SDS011;40178;53.042;6.406;2022-12-07T14:21:06;2.15;;;0.55;;
54263;SDS011;40178;53.042;6.406;2022-12-07T14:23:39;2.97;;;0.93;;
54263;SDS011;40178;53.042;6.406;2022-12-07T14:26:15;2.75;;;0.65;;
54263;SDS011;40178;53.042;6.406;2022-12-07T14:28:45;2.28;;;0.63;;
54263;SDS011;40178;53.042;6.406;2022-12-07T14:31:12;6.20;;;0.77;;
54263;SDS011;40178;53.042;6.406;2022-12-07T14:33:40;4.82;;;0.60;;
54263;SDS011;40178;53.042;6.406;2022-12-07T14:36:08;4.70;;;0.55;;
54263;SDS011;40178;53.042;6.406;2022-12-07T14:38:34;5.82;;;0.77;;
54263;SDS011;40178;53.042;6.406;2022-12-07T14:40:59;3.58;;;0.60;;
54263;SDS011;40178;53.042;6.406;2022-12-07T14:43:44;4.75;;;0.80;;
54263;SDS011;40178;53.042;6.406;2022-12-07T14:46:09;5.78;;;0.57;;
54263;SDS011;40178;53.042;6.406;2022-12-07T14:48:35;6.07;;;0.73;;
54263;SDS011;40178;53.042;6.406;2022-12-07T14:51:00;4.95;;;0.50;;
54263;SDS011;40178;53.042;6.406;2022-12-07T14:53:30;3.13;;;0.60;;
54263;SDS011;40178;53.042;6.406;2022-12-07T14:56:00;2.05;;;0.60;;
54263;SDS011;40178;53.042;6.406;2022-12-07T14:58:26;8.07;;;0.80;;
54263;SDS011;40178;53.042;6.406;2022-12-07T15:00:52;5.68;;;1.40;;
54263;SDS011;40178;53.042;6.406;2022-12-07T15:03:18;2.53;;;0.65;;
54263;SDS011;40178;53.042;6.406;2022-12-07T15:05:43;5.88;;;0.80;;
54263;SDS011;40178;53.042;6.406;2022-12-07T15:08:10;4.47;;;1.13;;
54263;SDS011;40178;53.042;6.406;2022-12-07T15:10:37;5.55;;;0.90;;
54263;SDS011;40178;53.042;6.406;2022-12-07T15:13:05;4.43;;;1.10;;
54263;SDS011;40178;53.042;6.406;2022-12-07T15:15:50;6.63;;;1.50;;
54263;SDS011;40178;53.042;6.406;2022-12-07T15:18:17;6.57;;;1.50;;
54263;SDS011;40178;53.042;6.406;2022-12-07T15:20:44;4.75;;;1.13;;
54263;SDS011;40178;53.042;6.406;2022-12-07T15:23:11;7.65;;;1.50;;
54263;SDS011;40178;53.042;6.406;2022-12-07T15:25:39;6.97;;;1.02;;
54263;SDS011;40178;53.042;6.406;2022-12-07T15:28:06;5.45;;;0.77;;
54263;SDS011;40178;53.042;6.406;2022-12-07T15:30:31;5.07;;;1.00;;
54263;SDS011;40178;53.042;6.406;2022-12-07T15:32:57;5.93;;;1.10;;
54263;SDS011;40178;53.042;6.406;2022-12-07T15:35:22;6.88;;;0.80;;
54263;SDS011;40178;53.042;6.406;2022-12-07T15:37:48;4.22;;;0.80;;
54263;SDS011;40178;53.042;6.406;2022-12-07T15:40:14;4.57;;;1.10;;
54263;SDS011;40178;53.042;6.406;2022-12-07T15:42:39;4.13;;;0.93;;
54263;SDS011;40178;53.042;6.406;2022-12-07T15:45:06;3.88;;;0.82;;
54263;SDS011;40178;53.042;6.406;2022-12-07T15:47:35;3.08;;;0.70;;
54263;SDS011;40178;53.042;6.406;2022-12-07T15:50:03;3.83;;;0.75;;
54263;SDS011;40178;53.042;6.406;2022-12-07T15:52:30;6.72;;;1.05;;
54263;SDS011;40178;53.042;6.406;2022-12-07T15:54:56;7.05;;;0.80;;
54263;SDS011;40178;53.042;6.406;2022-12-07T15:57:21;3.50;;;0.70;;
54263;SDS011;40178;53.042;6.406;2022-12-07T15:59:47;3.40;;;0.75;;
54263;SDS011;40178;53.042;6.406;2022-12-07T16:02:13;4.93;;;1.30;;
54263;SDS011;40178;53.042;6.406;2022-12-07T16:04:39;6.47;;;1.83;;
54263;SDS011;40178;53.042;6.406;2022-12-07T16:07:04;2.55;;;0.98;;
54263;SDS011;40178;53.042;6.406;2022-12-07T16:09:30;5.60;;;1.13;;
54263;SDS011;40178;53.042;6.406;2022-12-07T16:11:56;3.88;;;0.93;;
54263;SDS011;40178;53.042;6.406;2022-12-07T16:14:21;3.92;;;0.90;;
54263;SDS011;40178;53.042;6.406;2022-12-07T16:16:47;5.22;;;1.10;;
54263;SDS011;40178;53.042;6.406;2022-12-07T16:19:13;2.53;;;0.80;;
54263;SDS011;40178;53.042;6.406;2022-12-07T16:21:39;3.08;;;1.08;;
54263;SDS011;40178;53.042;6.406;2022-12-07T16:24:05;4.90;;;0.55;;
54263;SDS011;40178;53.042;6.406;2022-12-07T16:26:31;4.68;;;0.90;;
54263;SDS011;40178;53.042;6.406;2022-12-07T16:28:57;2.85;;;0.70;;
54263;SDS011;40178;53.042;6.406;2022-12-07T16:31:23;3.13;;;0.80;;
54263;SDS011;40178;53.042;6.406;2022-12-07T16:33:52;5.05;;;0.90;;
54263;SDS011;40178;53.042;6.406;2022-12-07T16:36:19;2.83;;;0.63;;